sensor_id;sensor_type;location;lat;lon;timestamp;P1;durP1;ratioP1;P2;durP2;ratioP2
13014;SDS011;6573;57.696;11.950;2023-03-22T00:01:48;24.90;;;17.30;;
13014;SDS011;6573;57.696;11.950;2023-03-22T00:04:19;26.47;;;17.47;;
13014;SDS011;6573;57.696;11.950;2023-03-22T00:06:49;30.30;;;17.20;;
13014;SDS011;6573;57.696;11.950;2023-03-22T00:09:18;28.57;;;17.67;;
13014;SDS011;6573;57.696;11.950;2023-03-22T00:11:47;29.17;;;17.47;;
13014;SDS011;6573;57.696;11.950;2023-03-22T00:14:16;26.90;;;16.20;;
13014;SDS011;6573;57.696;11.950;2023-03-22T00:16:45;25.33;;;17.30;;
13014;SDS011;6573;57.696;11.950;2023-03-22T00:19:15;25.57;;;17.20;;
13014;SDS011;6573;57.696;11.950;2023-03-22T00:21:43;26.93;;;17.97;;
13014;SDS011;6573;57.696;11.950;2023-03-22T00:24:14;31.33;;;18.63;;
13014;SDS011;6573;57.696;11.950;2023-03-22T00:26:43;32.20;;;18.53;;
13014;SDS011;6573;57.696;11.950;2023-03-22T00:29:12;30.17;;;18.73;;
13014;SDS011;6573;57.696;11.950;2023-03-22T00:31:44;36.17;;;19.23;;
13014;SDS011;6573;57.696;11.950;2023-03-22T00:34:12;36.13;;;19.60;;
13014;SDS011;6573;57.696;11.950;2023-03-22T00:36:40;34.13;;;20.57;;
13014;SDS011;6573;57.696;11.950;2023-03-22T00:39:09;32.70;;;20.57;;
13014;SDS011;6573;57.696;11.950;2023-03-22T00:41:39;39.90;;;22.63;;
13014;SDS011;6573;57.696;11.950;2023-03-22T00:44:08;36.80;;;22.67;;
13014;SDS011;6573;57.696;11.950;2023-03-22T00:46:37;31.47;;;19.07;;
13014;SDS011;6573;57.696;11.950;2023-03-22T00:49:05;34.87;;;23.30;;
13014;SDS011;6573;57.696;11.950;2023-03-22T00:51:34;38.57;;;23.93;;
13014;SDS011;6573;57.696;11.950;2023-03-22T00:54:02;37.07;;;24.30;;
13014;SDS011;6573;57.696;11.950;2023-03-22T00:56:31;34.40;;;23.03;;
13014;SDS011;6573;57.696;11.950;2023-03-22T00:59:04;38.87;;;23.37;;
13014;SDS011;6573;57.696;11.950;2023-03-22T01:01:36;30.00;;;19.83;;
13014;SDS011;6573;57.696;11.950;2023-03-22T01:04:04;28.40;;;19.23;;
13014;SDS011;6573;57.696;11.950;2023-03-22T01:06:33;24.43;;;17.07;;
13014;SDS011;6573;57.696;11.950;2023-03-22T01:09:02;25.43;;;17.33;;
13014;SDS011;6573;57.696;11.950;2023-03-22T01:11:30;20.37;;;13.67;;
13014;SDS011;6573;57.696;11.950;2023-03-22T01:13:59;18.10;;;12.77;;
13014;SDS011;6573;57.696;11.950;2023-03-22T01:16:29;16.40;;;11.67;;
13014;SDS011;6573;57.696;11.950;2023-03-22T01:18:57;12.67;;;9.87;;
13014;SDS011;6573;57.696;11.950;2023-03-22T01:21:26;14.07;;;10.30;;
13014;SDS011;6573;57.696;11.950;2023-03-22T01:23:54;15.37;;;10.90;;
13014;SDS011;6573;57.696;11.950;2023-03-22T01:26:23;14.17;;;10.13;;
13014;SDS011;6573;57.696;11.950;2023-03-22T01:28:54;13.67;;;10.53;;
13014;SDS011;6573;57.696;11.950;2023-03-22T01:31:25;16.77;;;12.37;;
13014;SDS011;6573;57.696;11.950;2023-03-22T01:33:58;17.77;;;13.03;;
13014;SDS011;6573;57.696;11.950;2023-03-22T01:36:26;21.73;;;14.50;;
13014;SDS011;6573;57.696;11.950;2023-03-22T01:38:54;25.50;;;16.57;;
13014;SDS011;6573;57.696;11.950;2023-03-22T01:41:23;29.67;;;18.77;;
13014;SDS011;6573;57.696;11.950;2023-03-22T01:44:10;39.13;;;21.30;;
13014;SDS011;6573;57.696;11.950;2023-03-22T01:46:43;36.13;;;22.63;;
13014;SDS011;6573;57.696;11.950;2023-03-22T01:49:15;41.73;;;23.57;;
13014;SDS011;6573;57.696;11.950;2023-03-22T01:51:47;40.00;;;22.27;;
13014;SDS011;6573;57.696;11.950;2023-03-22T01:54:19;39.20;;;23.03;;
13014;SDS011;6573;57.696;11.950;2023-03-22T01:56:53;40.43;;;23.57;;
13014;SDS011;6573;57.696;11.950;2023-03-22T01:59:22;45.07;;;25.70;;
13014;SDS011;6573;57.696;11.950;2023-03-22T02:01:52;47.37;;;26.10;;
13014;SDS011;6573;57.696;11.950;2023-03-22T02:04:22;59.60;;;25.30;;
13014;SDS011;6573;57.696;11.950;2023-03-22T02:06:59;44.37;;;24.17;;
13014;SDS011;6573;57.696;11.950;2023-03-22T02:09:35;55.20;;;27.10;;
13014;SDS011;6573;57.696;11.950;2023-03-22T02:12:10;46.97;;;25.00;;
13014;SDS011;6573;57.696;11.950;2023-03-22T02:14:56;50.53;;;26.13;;
13014;SDS011;6573;57.696;11.950;2023-03-22T02:17:32;41.43;;;23.63;;
13014;SDS011;6573;57.696;11.950;2023-03-22T02:23:33;65.83;;;27.47;;
13014;SDS011;6573;57.696;11.950;2023-03-22T02:29:37;49.47;;;27.10;;
13014;SDS011;6573;57.696;11.950;2023-03-22T02:32:26;49.63;;;26.43;;
13014;SDS011;6573;57.696;11.950;2023-03-22T02:35:20;53.33;;;26.57;;
13014;SDS011;6573;57.696;11.950;2023-03-22T02:38:08;50.47;;;27.87;;
13014;SDS011;6573;57.696;11.950;2023-03-22T02:40:49;50.07;;;27.80;;
13014;SDS011;6573;57.696;11.950;2023-03-22T02:43:29;55.07;;;29.17;;
13014;SDS011;6573;57.696;11.950;2023-03-22T02:46:05;51.37;;;28.97;;
13014;SDS011;6573;57.696;11.950;2023-03-22T02:48:39;44.47;;;26.77;;
13014;SDS011;6573;57.696;11.950;2023-03-22T02:51:12;54.37;;;29.33;;
13014;SDS011;6573;57.696;11.950;2023-03-22T02:53:47;48.87;;;27.60;;
13014;SDS011;6573;57.696;11.950;2023-03-22T02:56:21;50.53;;;29.57;;
13014;SDS011;6573;57.696;11.950;2023-03-22T02:58:55;50.47;;;29.07;;
13014;SDS011;6573;57.696;11.950;2023-03-22T03:01:27;49.60;;;28.13;;
13014;SDS011;6573;57.696;11.950;2023-03-22T03:04:00;51.80;;;27.10;;
13014;SDS011;6573;57.696;11.950;2023-03-22T03:06:32;42.60;;;25.97;;
13014;SDS011;6573;57.696;11.950;2023-03-22T03:09:05;42.83;;;27.33;;
13014;SDS011;6573;57.696;11.950;2023-03-22T03:11:36;42.27;;;27.47;;
13014;SDS011;6573;57.696;11.950;2023-03-22T03:14:04;46.27;;;27.63;;
13014;SDS011;6573;57.696;11.950;2023-03-22T03:16:32;44.90;;;28.97;;
13014;SDS011;6573;57.696;11.950;2023-03-22T03:19:02;44.67;;;28.70;;
13014;SDS011;6573;57.696;11.950;2023-03-22T03:21:39;49.20;;;28.00;;
13014;SDS011;6573;57.696;11.950;2023-03-22T03:24:16;43.87;;;28.60;;
13014;SDS011;6573;57.696;11.950;2023-03-22T03:26:57;39.93;;;25.13;;
13014;SDS011;6573;57.696;11.950;2023-03-22T03:29:32;45.27;;;27.13;;
13014;SDS011;6573;57.696;11.950;2023-03-22T03:32:09;42.67;;;27.73;;
13014;SDS011;6573;57.696;11.950;2023-03-22T03:34:43;41.70;;;26.63;;
13014;SDS011;6573;57.696;11.950;2023-03-22T03:37:17;44.37;;;28.43;;
13014;SDS011;6573;57.696;11.950;2023-03-22T03:39:50;42.37;;;28.97;;
13014;SDS011;6573;57.696;11.950;2023-03-22T03:42:25;45.13;;;29.60;;
13014;SDS011;6573;57.696;11.950;2023-03-22T03:44:56;45.07;;;28.47;;
13014;SDS011;6573;57.696;11.950;2023-03-22T03:47:26;47.30;;;27.50;;
13014;SDS011;6573;57.696;11.950;2023-03-22T03:49:56;41.23;;;26.10;;
13014;SDS011;6573;57.696;11.950;2023-03-22T03:52:24;41.03;;;26.60;;
13014;SDS011;6573;57.696;11.950;2023-03-22T03:54:54;41.57;;;25.93;;
13014;SDS011;6573;57.696;11.950;2023-03-22T03:57:23;42.07;;;25.50;;
13014;SDS011;6573;57.696;11.950;2023-03-22T03:59:54;43.17;;;26.20;;
13014;SDS011;6573;57.696;11.950;2023-03-22T04:02:22;37.53;;;24.53;;
13014;SDS011;6573;57.696;11.950;2023-03-22T04:04:51;32.93;;;24.13;;
13014;SDS011;6573;57.696;11.950;2023-03-22T04:07:21;37.00;;;23.00;;
13014;SDS011;6573;57.696;11.950;2023-03-22T04:09:49;37.03;;;23.73;;
13014;SDS011;6573;57.696;11.950;2023-03-22T04:12:17;32.27;;;21.23;;
13014;SDS011;6573;57.696;11.950;2023-03-22T04:14:47;33.47;;;21.90;;
13014;SDS011;6573;57.696;11.950;2023-03-22T04:17:15;37.67;;;23.70;;
13014;SDS011;6573;57.696;11.950;2023-03-22T04:19:44;32.20;;;23.47;;
13014;SDS011;6573;57.696;11.950;2023-03-22T04:22:12;35.27;;;23.70;;
13014;SDS011;6573;57.696;11.950;2023-03-22T04:24:43;33.50;;;22.77;;
13014;SDS011;6573;57.696;11.950;2023-03-22T04:27:19;34.47;;;23.77;;
13014;SDS011;6573;57.696;11.950;2023-03-22T04:29:49;36.33;;;24.53;;
13014;SDS011;6573;57.696;11.950;2023-03-22T04:32:18;38.50;;;25.47;;
13014;SDS011;6573;57.696;11.950;2023-03-22T04:34:48;31.57;;;23.70;;
13014;SDS011;6573;57.696;11.950;2023-03-22T04:37:16;34.97;;;25.67;;
13014;SDS011;6573;57.696;11.950;2023-03-22T04:39:48;38.37;;;25.13;;
13014;SDS011;6573;57.696;11.950;2023-03-22T04:42:16;38.13;;;25.90;;
13014;SDS011;6573;57.696;11.950;2023-03-22T04:44:45;33.40;;;23.97;;
13014;SDS011;6573;57.696;11.950;2023-03-22T04:47:15;36.00;;;25.93;;
13014;SDS011;6573;57.696;11.950;2023-03-22T04:49:43;34.57;;;25.37;;
13014;SDS011;6573;57.696;11.950;2023-03-22T04:52:12;34.63;;;24.90;;
13014;SDS011;6573;57.696;11.950;2023-03-22T04:54:43;40.10;;;28.57;;
13014;SDS011;6573;57.696;11.950;2023-03-22T04:57:12;35.37;;;25.00;;
13014;SDS011;6573;57.696;11.950;2023-03-22T04:59:40;36.13;;;25.37;;
13014;SDS011;6573;57.696;11.950;2023-03-22T05:02:08;37.33;;;25.90;;
13014;SDS011;6573;57.696;11.950;2023-03-22T05:04:38;34.67;;;24.50;;
13014;SDS011;6573;57.696;11.950;2023-03-22T05:07:06;37.13;;;25.37;;
13014;SDS011;6573;57.696;11.950;2023-03-22T05:09:35;35.80;;;24.60;;
13014;SDS011;6573;57.696;11.950;2023-03-22T05:12:03;37.40;;;25.20;;
13014;SDS011;6573;57.696;11.950;2023-03-22T05:14:32;35.80;;;25.37;;
13014;SDS011;6573;57.696;11.950;2023-03-22T05:17:00;40.23;;;25.13;;
13014;SDS011;6573;57.696;11.950;2023-03-22T05:19:29;37.90;;;25.90;;
13014;SDS011;6573;57.696;11.950;2023-03-22T05:22:00;36.13;;;24.73;;
13014;SDS011;6573;57.696;11.950;2023-03-22T05:24:28;38.60;;;24.13;;
13014;SDS011;6573;57.696;11.950;2023-03-22T05:26:57;35.93;;;24.13;;
13014;SDS011;6573;57.696;11.950;2023-03-22T05:29:26;37.23;;;23.43;;
13014;SDS011;6573;57.696;11.950;2023-03-22T05:31:58;34.17;;;22.47;;
13014;SDS011;6573;57.696;11.950;2023-03-22T05:34:26;32.90;;;22.40;;
13014;SDS011;6573;57.696;11.950;2023-03-22T05:37:03;33.97;;;21.43;;
13014;SDS011;6573;57.696;11.950;2023-03-22T05:39:31;34.43;;;23.27;;
13014;SDS011;6573;57.696;11.950;2023-03-22T05:41:59;35.83;;;22.37;;
13014;SDS011;6573;57.696;11.950;2023-03-22T05:44:28;31.63;;;21.03;;
13014;SDS011;6573;57.696;11.950;2023-03-22T05:46:57;38.93;;;21.63;;
13014;SDS011;6573;57.696;11.950;2023-03-22T05:49:25;35.73;;;20.77;;
13014;SDS011;6573;57.696;11.950;2023-03-22T05:51:54;31.77;;;19.10;;
13014;SDS011;6573;57.696;11.950;2023-03-22T05:54:23;35.10;;;21.23;;
13014;SDS011;6573;57.696;11.950;2023-03-22T05:56:54;37.00;;;20.33;;
13014;SDS011;6573;57.696;11.950;2023-03-22T05:59:23;35.67;;;19.73;;
13014;SDS011;6573;57.696;11.950;2023-03-22T06:01:53;40.67;;;20.57;;
13014;SDS011;6573;57.696;11.950;2023-03-22T06:04:22;35.67;;;19.90;;
13014;SDS011;6573;57.696;11.950;2023-03-22T06:06:50;33.23;;;20.03;;
13014;SDS011;6573;57.696;11.950;2023-03-22T06:09:20;38.90;;;21.30;;
13014;SDS011;6573;57.696;11.950;2023-03-22T06:11:50;35.80;;;20.27;;
13014;SDS011;6573;57.696;11.950;2023-03-22T06:14:19;35.90;;;21.33;;
13014;SDS011;6573;57.696;11.950;2023-03-22T06:16:49;38.47;;;20.20;;
13014;SDS011;6573;57.696;11.950;2023-03-22T06:19:21;35.90;;;20.57;;
13014;SDS011;6573;57.696;11.950;2023-03-22T06:21:51;35.37;;;22.73;;
13014;SDS011;6573;57.696;11.950;2023-03-22T06:24:21;38.23;;;23.10;;
13014;SDS011;6573;57.696;11.950;2023-03-22T06:26:51;37.37;;;22.73;;
13014;SDS011;6573;57.696;11.950;2023-03-22T06:29:20;37.43;;;22.10;;
13014;SDS011;6573;57.696;11.950;2023-03-22T06:31:48;42.57;;;24.40;;
13014;SDS011;6573;57.696;11.950;2023-03-22T06:34:19;44.87;;;24.87;;
13014;SDS011;6573;57.696;11.950;2023-03-22T06:36:47;40.43;;;25.03;;
13014;SDS011;6573;57.696;11.950;2023-03-22T06:39:16;40.40;;;23.17;;
13014;SDS011;6573;57.696;11.950;2023-03-22T06:41:45;39.33;;;23.53;;
13014;SDS011;6573;57.696;11.950;2023-03-22T06:44:15;39.43;;;23.00;;
13014;SDS011;6573;57.696;11.950;2023-03-22T06:46:45;40.83;;;23.97;;
13014;SDS011;6573;57.696;11.950;2023-03-22T06:49:14;37.40;;;22.97;;
13014;SDS011;6573;57.696;11.950;2023-03-22T06:51:44;35.60;;;21.47;;
13014;SDS011;6573;57.696;11.950;2023-03-22T06:54:13;38.00;;;22.33;;
13014;SDS011;6573;57.696;11.950;2023-03-22T06:56:42;36.90;;;21.50;;
13014;SDS011;6573;57.696;11.950;2023-03-22T06:59:11;42.13;;;23.00;;
13014;SDS011;6573;57.696;11.950;2023-03-22T07:01:45;41.57;;;21.70;;
13014;SDS011;6573;57.696;11.950;2023-03-22T07:04:14;49.03;;;23.47;;
13014;SDS011;6573;57.696;11.950;2023-03-22T07:06:45;47.17;;;24.03;;
13014;SDS011;6573;57.696;11.950;2023-03-22T07:09:14;50.97;;;25.50;;
13014;SDS011;6573;57.696;11.950;2023-03-22T07:11:42;52.20;;;26.03;;
13014;SDS011;6573;57.696;11.950;2023-03-22T07:14:11;53.17;;;25.40;;
13014;SDS011;6573;57.696;11.950;2023-03-22T07:16:39;52.83;;;26.53;;
13014;SDS011;6573;57.696;11.950;2023-03-22T07:19:09;52.37;;;25.67;;
13014;SDS011;6573;57.696;11.950;2023-03-22T07:21:39;48.63;;;25.43;;
13014;SDS011;6573;57.696;11.950;2023-03-22T07:24:08;52.77;;;25.87;;
13014;SDS011;6573;57.696;11.950;2023-03-22T07:26:37;47.20;;;25.63;;
13014;SDS011;6573;57.696;11.950;2023-03-22T07:29:07;52.40;;;26.20;;
13014;SDS011;6573;57.696;11.950;2023-03-22T07:31:40;48.50;;;26.70;;
13014;SDS011;6573;57.696;11.950;2023-03-22T07:34:11;47.03;;;26.37;;
13014;SDS011;6573;57.696;11.950;2023-03-22T07:36:39;49.53;;;26.47;;
13014;SDS011;6573;57.696;11.950;2023-03-22T07:39:07;50.47;;;27.83;;
13014;SDS011;6573;57.696;11.950;2023-03-22T07:41:35;53.60;;;29.10;;
13014;SDS011;6573;57.696;11.950;2023-03-22T07:44:04;59.77;;;31.47;;
13014;SDS011;6573;57.696;11.950;2023-03-22T07:46:44;45.80;;;28.30;;
13014;SDS011;6573;57.696;11.950;2023-03-22T07:49:14;54.67;;;31.43;;
13014;SDS011;6573;57.696;11.950;2023-03-22T07:51:43;61.30;;;33.63;;
13014;SDS011;6573;57.696;11.950;2023-03-22T07:54:12;53.30;;;30.90;;
13014;SDS011;6573;57.696;11.950;2023-03-22T07:56:59;51.87;;;31.87;;
13014;SDS011;6573;57.696;11.950;2023-03-22T07:59:28;55.20;;;32.97;;
13014;SDS011;6573;57.696;11.950;2023-03-22T08:01:56;54.13;;;33.83;;
13014;SDS011;6573;57.696;11.950;2023-03-22T08:04:26;60.13;;;34.60;;
13014;SDS011;6573;57.696;11.950;2023-03-22T08:06:56;63.53;;;35.77;;
13014;SDS011;6573;57.696;11.950;2023-03-22T08:09:25;65.17;;;36.07;;
13014;SDS011;6573;57.696;11.950;2023-03-22T08:11:54;62.00;;;35.03;;
13014;SDS011;6573;57.696;11.950;2023-03-22T08:14:22;61.60;;;33.13;;
13014;SDS011;6573;57.696;11.950;2023-03-22T08:17:02;67.43;;;37.00;;
13014;SDS011;6573;57.696;11.950;2023-03-22T08:19:32;60.20;;;33.87;;
13014;SDS011;6573;57.696;11.950;2023-03-22T08:22:01;62.83;;;34.30;;
13014;SDS011;6573;57.696;11.950;2023-03-22T08:24:30;66.03;;;34.33;;
13014;SDS011;6573;57.696;11.950;2023-03-22T08:26:58;68.90;;;35.73;;
13014;SDS011;6573;57.696;11.950;2023-03-22T08:29:29;70.07;;;36.27;;
13014;SDS011;6573;57.696;11.950;2023-03-22T08:32:04;70.07;;;35.90;;
13014;SDS011;6573;57.696;11.950;2023-03-22T08:34:36;69.43;;;38.47;;
13014;SDS011;6573;57.696;11.950;2023-03-22T08:37:08;70.97;;;33.03;;
13014;SDS011;6573;57.696;11.950;2023-03-22T08:39:39;71.20;;;36.87;;
13014;SDS011;6573;57.696;11.950;2023-03-22T08:42:08;77.03;;;37.70;;
13014;SDS011;6573;57.696;11.950;2023-03-22T08:44:38;79.63;;;40.67;;
13014;SDS011;6573;57.696;11.950;2023-03-22T08:47:07;71.83;;;38.27;;
13014;SDS011;6573;57.696;11.950;2023-03-22T08:49:36;71.57;;;38.70;;
13014;SDS011;6573;57.696;11.950;2023-03-22T08:52:04;70.37;;;37.33;;
13014;SDS011;6573;57.696;11.950;2023-03-22T08:54:34;72.13;;;36.97;;
13014;SDS011;6573;57.696;11.950;2023-03-22T08:57:03;76.13;;;39.10;;
13014;SDS011;6573;57.696;11.950;2023-03-22T08:59:35;68.60;;;36.30;;
13014;SDS011;6573;57.696;11.950;2023-03-22T09:02:07;65.60;;;35.30;;
13014;SDS011;6573;57.696;11.950;2023-03-22T09:04:38;67.80;;;36.93;;
13014;SDS011;6573;57.696;11.950;2023-03-22T09:07:07;69.70;;;36.80;;
13014;SDS011;6573;57.696;11.950;2023-03-22T09:09:35;71.33;;;37.73;;
13014;SDS011;6573;57.696;11.950;2023-03-22T09:12:05;72.00;;;37.70;;
13014;SDS011;6573;57.696;11.950;2023-03-22T09:14:34;66.90;;;32.17;;
13014;SDS011;6573;57.696;11.950;2023-03-22T09:17:02;70.13;;;34.70;;
13014;SDS011;6573;57.696;11.950;2023-03-22T09:19:32;67.67;;;34.83;;
13014;SDS011;6573;57.696;11.950;2023-03-22T09:22:05;79.23;;;34.80;;
13014;SDS011;6573;57.696;11.950;2023-03-22T09:24:34;72.97;;;34.50;;
13014;SDS011;6573;57.696;11.950;2023-03-22T09:27:02;71.43;;;34.83;;
13014;SDS011;6573;57.696;11.950;2023-03-22T09:29:31;69.83;;;33.73;;
13014;SDS011;6573;57.696;11.950;2023-03-22T09:32:00;70.30;;;32.17;;
13014;SDS011;6573;57.696;11.950;2023-03-22T09:34:29;68.67;;;33.60;;
13014;SDS011;6573;57.696;11.950;2023-03-22T09:36:57;81.10;;;35.17;;
13014;SDS011;6573;57.696;11.950;2023-03-22T09:39:29;73.63;;;35.23;;
13014;SDS011;6573;57.696;11.950;2023-03-22T09:41:58;79.27;;;34.50;;
13014;SDS011;6573;57.696;11.950;2023-03-22T09:44:31;78.20;;;35.77;;
13014;SDS011;6573;57.696;11.950;2023-03-22T09:47:03;64.03;;;32.57;;
13014;SDS011;6573;57.696;11.950;2023-03-22T09:49:37;64.37;;;32.00;;
13014;SDS011;6573;57.696;11.950;2023-03-22T09:52:19;64.90;;;29.63;;
13014;SDS011;6573;57.696;11.950;2023-03-22T09:54:49;59.17;;;29.07;;
13014;SDS011;6573;57.696;11.950;2023-03-22T09:57:20;52.83;;;28.27;;
13014;SDS011;6573;57.696;11.950;2023-03-22T09:59:54;55.50;;;27.47;;
13014;SDS011;6573;57.696;11.950;2023-03-22T10:02:36;51.83;;;27.00;;
13014;SDS011;6573;57.696;11.950;2023-03-22T10:05:15;50.23;;;26.23;;
13014;SDS011;6573;57.696;11.950;2023-03-22T10:07:53;44.77;;;26.00;;
13014;SDS011;6573;57.696;11.950;2023-03-22T10:10:36;44.73;;;25.93;;
13014;SDS011;6573;57.696;11.950;2023-03-22T10:13:10;48.37;;;26.50;;
13014;SDS011;6573;57.696;11.950;2023-03-22T10:15:45;63.30;;;29.87;;
13014;SDS011;6573;57.696;11.950;2023-03-22T10:18:17;62.50;;;30.53;;
13014;SDS011;6573;57.696;11.950;2023-03-22T10:20:47;61.80;;;29.53;;
13014;SDS011;6573;57.696;11.950;2023-03-22T10:23:24;58.23;;;28.90;;
13014;SDS011;6573;57.696;11.950;2023-03-22T10:25:59;59.10;;;27.80;;
13014;SDS011;6573;57.696;11.950;2023-03-22T10:28:30;69.10;;;29.03;;
13014;SDS011;6573;57.696;11.950;2023-03-22T10:31:04;54.80;;;27.77;;
13014;SDS011;6573;57.696;11.950;2023-03-22T10:33:34;55.57;;;28.00;;
13014;SDS011;6573;57.696;11.950;2023-03-22T10:36:07;55.07;;;26.40;;
13014;SDS011;6573;57.696;11.950;2023-03-22T10:38:42;59.87;;;28.40;;
13014;SDS011;6573;57.696;11.950;2023-03-22T10:41:16;54.70;;;26.83;;
13014;SDS011;6573;57.696;11.950;2023-03-22T10:43:47;53.87;;;27.60;;
13014;SDS011;6573;57.696;11.950;2023-03-22T10:46:20;51.33;;;25.50;;
13014;SDS011;6573;57.696;11.950;2023-03-22T10:48:55;52.17;;;26.20;;
13014;SDS011;6573;57.696;11.950;2023-03-22T10:51:28;49.63;;;26.27;;
13014;SDS011;6573;57.696;11.950;2023-03-22T10:53:59;56.23;;;27.00;;
13014;SDS011;6573;57.696;11.950;2023-03-22T10:56:33;55.37;;;26.43;;
13014;SDS011;6573;57.696;11.950;2023-03-22T10:59:02;49.60;;;25.30;;
13014;SDS011;6573;57.696;11.950;2023-03-22T11:01:31;50.43;;;24.73;;
13014;SDS011;6573;57.696;11.950;2023-03-22T11:04:05;49.67;;;22.57;;
13014;SDS011;6573;57.696;11.950;2023-03-22T11:06:37;49.73;;;25.50;;
13014;SDS011;6573;57.696;11.950;2023-03-22T11:09:10;53.00;;;26.73;;
13014;SDS011;6573;57.696;11.950;2023-03-22T11:11:46;44.93;;;22.77;;
13014;SDS011;6573;57.696;11.950;2023-03-22T11:14:19;49.37;;;25.93;;
13014;SDS011;6573;57.696;11.950;2023-03-22T11:16:54;46.87;;;26.87;;
13014;SDS011;6573;57.696;11.950;2023-03-22T11:19:24;48.37;;;27.03;;
13014;SDS011;6573;57.696;11.950;2023-03-22T11:21:54;47.00;;;25.83;;
13014;SDS011;6573;57.696;11.950;2023-03-22T11:24:27;42.97;;;24.13;;
13014;SDS011;6573;57.696;11.950;2023-03-22T11:27:03;42.57;;;24.37;;
13014;SDS011;6573;57.696;11.950;2023-03-22T11:29:41;39.37;;;25.03;;
13014;SDS011;6573;57.696;11.950;2023-03-22T11:34:59;38.93;;;24.17;;
13014;SDS011;6573;57.696;11.950;2023-03-22T11:37:31;44.83;;;24.07;;
13014;SDS011;6573;57.696;11.950;2023-03-22T11:40:00;35.23;;;21.40;;
13014;SDS011;6573;57.696;11.950;2023-03-22T11:42:31;39.17;;;22.60;;
13014;SDS011;6573;57.696;11.950;2023-03-22T11:45:01;38.83;;;23.40;;
13014;SDS011;6573;57.696;11.950;2023-03-22T11:47:31;35.60;;;21.93;;
13014;SDS011;6573;57.696;11.950;2023-03-22T11:50:05;38.80;;;21.50;;
13014;SDS011;6573;57.696;11.950;2023-03-22T11:52:54;33.60;;;19.60;;
13014;SDS011;6573;57.696;11.950;2023-03-22T11:55:23;29.43;;;19.50;;
13014;SDS011;6573;57.696;11.950;2023-03-22T11:57:55;30.07;;;19.23;;
13014;SDS011;6573;57.696;11.950;2023-03-22T12:00:24;36.43;;;20.23;;
13014;SDS011;6573;57.696;11.950;2023-03-22T12:02:55;33.20;;;19.07;;
13014;SDS011;6573;57.696;11.950;2023-03-22T12:05:28;33.93;;;19.23;;
13014;SDS011;6573;57.696;11.950;2023-03-22T12:07:59;30.60;;;19.93;;
13014;SDS011;6573;57.696;11.950;2023-03-22T12:10:35;33.40;;;19.27;;
13014;SDS011;6573;57.696;11.950;2023-03-22T12:13:09;37.70;;;19.73;;
13014;SDS011;6573;57.696;11.950;2023-03-22T12:15:47;35.70;;;19.67;;
13014;SDS011;6573;57.696;11.950;2023-03-22T12:18:21;30.57;;;19.27;;
13014;SDS011;6573;57.696;11.950;2023-03-22T12:20:57;32.50;;;19.80;;
13014;SDS011;6573;57.696;11.950;2023-03-22T12:23:28;30.60;;;18.07;;
13014;SDS011;6573;57.696;11.950;2023-03-22T12:25:59;32.50;;;19.73;;
13014;SDS011;6573;57.696;11.950;2023-03-22T12:28:33;35.70;;;20.07;;
13014;SDS011;6573;57.696;11.950;2023-03-22T12:31:08;27.93;;;19.10;;
13014;SDS011;6573;57.696;11.950;2023-03-22T12:33:45;31.70;;;19.27;;
13014;SDS011;6573;57.696;11.950;2023-03-22T12:36:16;33.03;;;20.57;;
13014;SDS011;6573;57.696;11.950;2023-03-22T12:38:49;32.87;;;21.07;;
13014;SDS011;6573;57.696;11.950;2023-03-22T12:41:24;34.07;;;20.43;;
13014;SDS011;6573;57.696;11.950;2023-03-22T12:43:56;32.73;;;22.67;;
13014;SDS011;6573;57.696;11.950;2023-03-22T12:46:28;31.63;;;21.30;;
13014;SDS011;6573;57.696;11.950;2023-03-22T12:49:02;30.67;;;20.13;;
13014;SDS011;6573;57.696;11.950;2023-03-22T12:51:35;32.10;;;22.57;;
13014;SDS011;6573;57.696;11.950;2023-03-22T12:54:05;33.67;;;22.17;;
13014;SDS011;6573;57.696;11.950;2023-03-22T12:56:39;32.73;;;22.57;;
13014;SDS011;6573;57.696;11.950;2023-03-22T12:59:14;26.33;;;17.27;;
13014;SDS011;6573;57.696;11.950;2023-03-22T13:01:47;31.57;;;22.07;;
13014;SDS011;6573;57.696;11.950;2023-03-22T13:04:31;30.30;;;21.97;;
13014;SDS011;6573;57.696;11.950;2023-03-22T13:07:29;32.20;;;23.53;;
13014;SDS011;6573;57.696;11.950;2023-03-22T13:16:16;31.37;;;21.40;;
13014;SDS011;6573;57.696;11.950;2023-03-22T13:18:59;29.17;;;18.33;;
13014;SDS011;6573;57.696;11.950;2023-03-22T13:21:30;27.90;;;20.93;;
13014;SDS011;6573;57.696;11.950;2023-03-22T13:24:20;24.63;;;17.83;;
13014;SDS011;6573;57.696;11.950;2023-03-22T13:26:51;23.33;;;17.37;;
13014;SDS011;6573;57.696;11.950;2023-03-22T13:29:21;29.50;;;19.87;;
13014;SDS011;6573;57.696;11.950;2023-03-22T13:31:56;27.13;;;18.53;;
13014;SDS011;6573;57.696;11.950;2023-03-22T13:34:30;26.70;;;18.10;;
13014;SDS011;6573;57.696;11.950;2023-03-22T13:37:07;25.40;;;17.73;;
13014;SDS011;6573;57.696;11.950;2023-03-22T13:39:36;24.57;;;17.47;;
13014;SDS011;6573;57.696;11.950;2023-03-22T13:42:07;22.33;;;16.17;;
13014;SDS011;6573;57.696;11.950;2023-03-22T13:44:43;27.30;;;17.63;;
13014;SDS011;6573;57.696;11.950;2023-03-22T13:47:29;19.07;;;14.23;;
13014;SDS011;6573;57.696;11.950;2023-03-22T13:50:02;20.03;;;14.97;;
13014;SDS011;6573;57.696;11.950;2023-03-22T13:52:39;22.27;;;15.83;;
13014;SDS011;6573;57.696;11.950;2023-03-22T13:58:10;23.30;;;15.47;;
13014;SDS011;6573;57.696;11.950;2023-03-22T14:01:03;18.23;;;15.30;;
13014;SDS011;6573;57.696;11.950;2023-03-22T14:03:35;25.20;;;15.47;;
13014;SDS011;6573;57.696;11.950;2023-03-22T14:06:12;26.00;;;17.60;;
13014;SDS011;6573;57.696;11.950;2023-03-22T14:08:52;26.03;;;17.10;;
13014;SDS011;6573;57.696;11.950;2023-03-22T14:11:28;23.53;;;16.47;;
13014;SDS011;6573;57.696;11.950;2023-03-22T14:14:02;25.23;;;18.23;;
13014;SDS011;6573;57.696;11.950;2023-03-22T14:16:40;22.47;;;16.90;;
13014;SDS011;6573;57.696;11.950;2023-03-22T14:19:15;26.00;;;15.93;;
13014;SDS011;6573;57.696;11.950;2023-03-22T14:21:47;24.33;;;16.63;;
13014;SDS011;6573;57.696;11.950;2023-03-22T14:24:18;24.70;;;15.33;;
13014;SDS011;6573;57.696;11.950;2023-03-22T14:26:55;22.13;;;15.07;;
13014;SDS011;6573;57.696;11.950;2023-03-22T14:29:24;26.53;;;15.47;;
13014;SDS011;6573;57.696;11.950;2023-03-22T14:31:59;22.27;;;15.40;;
13014;SDS011;6573;57.696;11.950;2023-03-22T14:34:32;28.87;;;15.80;;
13014;SDS011;6573;57.696;11.950;2023-03-22T14:37:02;26.73;;;16.43;;
13014;SDS011;6573;57.696;11.950;2023-03-22T14:39:33;22.90;;;15.37;;
13014;SDS011;6573;57.696;11.950;2023-03-22T14:42:04;30.53;;;17.40;;
13014;SDS011;6573;57.696;11.950;2023-03-22T14:44:35;30.17;;;17.77;;
13014;SDS011;6573;57.696;11.950;2023-03-22T14:47:09;22.13;;;15.10;;
13014;SDS011;6573;57.696;11.950;2023-03-22T14:49:39;30.47;;;18.03;;
13014;SDS011;6573;57.696;11.950;2023-03-22T14:52:09;30.57;;;17.13;;
13014;SDS011;6573;57.696;11.950;2023-03-22T14:54:41;26.83;;;16.40;;
13014;SDS011;6573;57.696;11.950;2023-03-22T14:57:10;29.87;;;16.43;;
13014;SDS011;6573;57.696;11.950;2023-03-22T14:59:41;27.67;;;15.77;;
13014;SDS011;6573;57.696;11.950;2023-03-22T15:02:16;33.17;;;16.33;;
13014;SDS011;6573;57.696;11.950;2023-03-22T15:04:49;28.40;;;13.83;;
13014;SDS011;6573;57.696;11.950;2023-03-22T15:07:19;28.90;;;14.67;;